Tiempo atmosférico en la estación meteorológica de Lubia, Soria (1100 m.)



Fecha
DESCASC
Temp. máxima en grados centígrados (hora)
DESCASC
Temp. mínima en grados centígrados (hora)
DESCASC
Temp. media en grados centígrados
DESCASC
Racha de viento máxima en m/sg (hora)
DESCASC
Velocidad máxima media en intervalos de 10 minutos(hora)
DESCASC
Precipitaciones diarias en mm
DESCASC
Precipitaciones de 00:00 a 06:00 en mm
DESCASC
Precipitaciones de 06:00 a 12:00 en mm
DESCASC
Precipitaciones de 12:00 a 18:00 en mm
DESCASC
Precipitaciones de 18:00 a 24:00 en mm
DESCASC
17-09-2020 25.5 (16:00) 15.1 (02:40) 20.3 10.28 (16:10) 5.83 (15:30) 0 0 0 0 0
15-09-2020 -- (--) -- (--) -- -- (--) -- (--) -- 0 -- 0 0
14-09-2020 28.5 (15:30) 10.5 (07:50) 19.5 9.72 (14:30) 5 (13:10) 0 0 0 0 0
13-09-2020 30.6 (16:50) 10.7 (00:00) 20.7 9.44 (14:30) 5 (12:30) 0 0 0 0 0
12-09-2020 29.7 (17:20) 9.4 (07:40) 19.6 7.5 (19:30) 4.72 (19:30) 0 0 0 0 0
11-09-2020 29.9 (17:20) 8.1 (00:00) 19 7.78 (19:20) 4.72 (19:10) 0 0 0 0 0
10-09-2020 26.6 (17:00) 11.1 (00:00) 18.9 9.72 (12:50) 5 (13:10) 0 0 0 0 0
09-09-2020 26.7 (17:20) 7.3 (07:40) 17 8.33 (17:20) 5 (13:20) 0 0 0 0 0
08-09-2020 23.8 (17:20) 5.7 (00:00) 14.7 8.89 (13:50) 5.28 (00:20) 0 0 0 0 0
07-09-2020 21 (17:00) 8.7 (06:00) 14.8 11.67 (12:50) 6.67 (21:00) 0 0 0 0 0
06-09-2020 25.4 (14:30) 10.3 (00:00) 17.8 10.28 (18:20) 5.83 (18:20) 0 0 0 0 0
05-09-2020 29.9 (14:40) 12 (00:00) 20.9 9.17 (18:00) 6.11 (19:20) 0 0 0 0 0
04-09-2020 31.3 (17:40) 10.7 (00:00) 21 9.44 (15:20) 3.89 (15:10) 0 0 0 0 0
03-09-2020 29.9 (17:30) 6.3 (00:00) 18.1 7.5 (15:40) 4.44 (21:10) 0 0 0 0 0
02-09-2020 26.5 (18:10) 8.8 (00:00) 17.7 10 (18:20) 5.56 (19:30) 0 0 0 0 0
01-09-2020 25.9 (16:10) 8.5 (00:00) 17.2 8.61 (14:10) 5.28 (17:30) 0 0 0 0 0
31-08-2020 24.1 (18:00) 1.9 (00:00) 13 8.89 (17:10) 4.72 (17:10) 0 0 0 0 0
30-08-2020 18.6 (17:10) 2.3 (00:00) 10.5 8.33 (18:50) 4.17 (19:10) 0 0 0 0 0
29-08-2020 18.8 (14:50) 5.1 (00:00) 11.9 13.33 (16:50) 7.78 (16:50) 0.8 0 0 0 0.8
28-08-2020 27.6 (16:50) 10.9 (00:00) 19.3 11.39 (16:10) 6.67 (14:20) 0 0 0 0 0
27-08-2020 33.3 (16:40) 14.1 (00:00) 23.7 11.39 (15:20) 6.39 (18:00) 0 0 0 0 0
26-08-2020 34.3 (18:00) 12.3 (00:00) 23.3 10.56 (17:10) 5.28 (15:20) 0 0 0 0 0
25-08-2020 33.2 (17:50) 10.8 (00:00) 22 10.56 (14:20) 6.11 (14:30) 0 0 0 0 0
24-08-2020 -- (--) -- (--) -- -- (--) -- (--) -- -- -- 0 0
23-08-2020 -- (--) -- (--) -- -- (--) -- (--) -- -- -- -- --
22-08-2020 -- (--) -- (--) -- -- (--) -- (--) -- -- -- -- --
21-08-2020 -- (--) -- (--) -- -- (--) -- (--) -- 0 0 0 --
20-08-2020 31.3 (16:40) 11.6 (00:00) 21.4 13.33 (13:30) 7.5 (15:00) 0 0 0 0 0
19-08-2020 30.8 (17:00) 13.9 (00:00) 22.3 13.61 (18:10) 7.5 (17:50) 0 0 0 0 0

Gráficas

Temp. máximas Temp. mínimas Temp. medias Precipitaciones Rachas de viento máximas Velocidades máximas media en intervalos de 10 minutos

Datos horarios

Fecha y hora oficial Temperatura (ºC) Velocidad del viento (km/h) Dirección del viento Racha (km/h) Dirección de racha Precipitación (mm) Presión (hPa) Tendencia (hPa) Humedad (%)
2020-09-17 23:00:00 17.4 6 Sudeste 14 Sudeste 0 -- -- 70
2020-09-17 22:00:00 18 6 Sudeste 13 Sur 0 -- -- 68
2020-09-17 21:00:00 19.2 9 Sur 20 Sur 0 -- -- 64
2020-09-17 20:00:00 20 9 Sur 24 Sudoeste 0 -- -- 60
2020-09-17 19:00:00 21.5 14 Sur 31 Sudeste 0 -- -- 54
2020-09-17 18:00:00 23.1 16 Sur 29 Sur 0 -- -- 47
2020-09-17 17:00:00 24 15 Sur 37 Sur 0 -- -- 45
2020-09-17 16:00:00 25.5 16 Sur 36 Sur 0 -- -- 41
2020-09-17 15:00:00 23.8 17 Sur 33 Sudeste 0 -- -- 44
2020-09-17 14:00:00 23.9 16 Sur 29 Sudeste 0 -- -- 45
2020-09-17 13:00:00 23.4 9 Sudeste 23 Sudeste 0 -- -- 47
2020-09-17 12:00:00 21.4 11 Sur 24 Sur 0 -- -- 54
2020-09-17 11:00:00 21.2 10 Sur 20 Sudeste 0 -- -- 55
2020-09-17 10:00:00 18.7 8 Sur 14 Sudeste 0 -- -- 64
2020-09-17 09:00:00 17.2 8 Sudeste 13 Sudeste 0 -- -- 69
2020-09-17 08:00:00 16 4 Sudeste 10 Este 0 -- -- 72
2020-09-17 07:00:00 16.2 6 Sudeste 10 Sudeste 0 -- -- 71
2020-09-17 06:00:00 17.3 6 Sudeste 17 Sudeste 0 -- -- 66
2020-09-17 05:00:00 16.6 10 Sudeste 13 Este 0 -- -- 70
2020-09-17 04:00:00 16.7 5 Este 8 Este 0 -- -- 69
2020-09-17 03:00:00 15.5 0 Calma 5 Este 0 -- -- 76
2020-09-17 02:00:00 15.6 3 Norte 6 Oeste 0 -- -- 73
2020-09-17 01:00:00 17.7 4 Oeste 12 Sudoeste 0 -- -- 65
2020-09-17 00:00:00 18.7 7 Este 10 Este 0 -- -- 60
2020-09-16 23:00:00 18.8 8 Este 13 Nordeste 0 -- -- 60
2020-09-16 22:00:00 18.1 6 Este 14 Este 0 -- -- 70
2020-09-16 21:00:00 19.2 7 Este 22 Este 0 -- -- 71
2020-09-16 20:00:00 19.8 5 Este 9 Este 0 -- -- 75
2020-09-16 19:00:00 20.1 8 Nordeste 38 Este 2.4 -- -- 65
2020-09-16 18:00:00 25.4 14 Sudeste 29 Sudeste 0 -- -- 41
2020-09-16 17:00:00 27.4 10 Sudoeste 21 Sur 0 -- -- 31
2020-09-16 16:00:00 27.6 10 Sur 36 Este 0 -- -- 31
2020-09-16 15:00:00 26.8 10 Sudeste 25 Sudeste 0 -- -- 33
2020-09-16 14:00:00 27.5 9 Sudeste 23 Sudeste 0 -- -- 33
2020-09-16 13:00:00 26.2 10 Este 21 Este 0 -- -- 36
2020-09-16 12:00:00 25.7 10 Sudeste 16 Sudeste 0 -- -- 40
2020-09-16 11:00:00 23.3 7 Nordeste 12 Nordeste 0 -- -- 45
2020-09-16 10:00:00 20 6 Este 9 Este 0 -- -- 57
2020-09-16 09:00:00 17.3 3 Norte 5 Nordeste 0 -- -- 70
2020-09-16 08:00:00 11.5 4 Nordeste 7 Nordeste 0 -- -- 89
2020-09-16 07:00:00 12.3 3 Sur 4 Norte 0 -- -- 86
2020-09-16 06:00:00 11.9 3 Noroeste 10 Oeste 0 -- -- 84
2020-09-16 05:00:00 12.5 7 Sudoeste 18 Noroeste 0 -- -- 82
2020-09-16 04:00:00 12.1 3 Norte 5 Nordeste 0 -- -- 82
2020-09-16 03:00:00 12.2 0 Calma 5 Sudoeste 0 -- -- 81
2020-09-16 02:00:00 13.1 3 Nordeste 5 Nordeste 0 -- -- 78
2020-09-16 01:00:00 14.9 3 Oeste 10 Sudoeste 0 -- -- 68
2020-09-16 00:00:00 17.4 9 Sudoeste 13 Sudoeste 0 -- -- 58
2020-09-15 23:00:00 18.6 9 Sudoeste 12 Sudoeste 0 -- -- 53
2020-09-15 22:00:00 16.7 7 Sudoeste 10 Sudoeste 0 -- -- 62
2020-09-15 21:00:00 19.9 8 Sudoeste 11 Sudoeste 0 -- -- 49
2020-09-15 20:00:00 22.2 7 Sudoeste 19 Oeste 0 -- -- 43
2020-09-15 19:00:00 24.9 13 Sudoeste 26 Oeste 0 -- -- 38
2020-09-15 18:00:00 25.1 12 Sudoeste 30 Sudoeste 0 -- -- 37
2020-09-15 17:00:00 25 15 Sudoeste 33 Sudoeste 0 -- -- 37
2020-09-15 16:00:00 23.6 14 Sur 29 Sudoeste 0 -- -- 45
2020-09-15 15:00:00 25.2 14 Sudoeste 26 Sudoeste 0 -- -- 42
2020-09-15 14:00:00 23.7 11 Sur 21 Sur 0 -- -- 52
2020-09-15 13:00:00 22.6 8 Sudeste 18 Sudeste 0 -- -- 58
2020-09-15 12:00:00 19.5 9 Sur -- -- -- -- -- 69
2020-09-15 11:00:00 -- -- -- -- -- -- -- -- --
2020-09-15 10:00:00 -- -- -- -- -- -- -- -- --
2020-09-15 09:00:00 -- -- -- -- -- -- -- -- --
2020-09-15 08:00:00 -- -- -- -- -- -- -- -- --
2020-09-15 07:00:00 13 3 Noroeste 13 Noroeste 0 -- -- 76
2020-09-15 06:00:00 15.2 12 Oeste 22 Sudoeste 0 -- -- 67
2020-09-15 05:00:00 15.7 7 Sur 9 Sur 0 -- -- 63
2020-09-15 04:00:00 15.7 6 Sur 10 Sur 0 -- -- 63
2020-09-15 03:00:00 17.6 0 Calma 13 Sudoeste 0 -- -- 54
2020-09-15 02:00:00 18.7 7 Sudoeste 11 Sur 0 -- -- 51
2020-09-15 01:00:00 16.9 2 Sudeste 12 Este 0 -- -- 58
2020-09-15 00:00:00 17.7 9 Este 13 Este 0 -- -- 53
2020-09-14 23:00:00 17.6 8 Este 12 Sudeste 0 -- -- 53
2020-09-14 22:00:00 19.2 5 Sudeste 13 Este 0 -- -- 47
2020-09-14 21:00:00 19.8 6 Sudeste 14 Este 0 -- -- 47
2020-09-14 20:00:00 21.7 6 Sudoeste 10 Sudoeste 0 -- -- 42
2020-09-14 19:00:00 25.1 5 Sudoeste 23 Sudoeste 0 -- -- 34
2020-09-14 18:00:00 25.2 15 Sudoeste 27 Sudoeste 0 -- -- 32
2020-09-14 17:00:00 25.6 12 Sudoeste 25 Sudoeste 0 -- -- 31
2020-09-14 16:00:00 26.3 16 Sur 32 Sur 0 -- -- 26
2020-09-14 15:00:00 26.5 14 Sur 35 Sudeste 0 -- -- 27
2020-09-14 14:00:00 26.4 13 Sur 33 Sur 0 -- -- 29
2020-09-14 13:00:00 26.8 17 Sur 31 Sur 0 -- -- 27
2020-09-14 12:00:00 23.7 10 Sur 28 Sur 0 -- -- 37
2020-09-14 11:00:00 23.1 10 Sur 19 Sur 0 -- -- 41
2020-09-14 10:00:00 20.5 4 Sur 10 Sudeste 0 -- -- 49
2020-09-14 09:00:00 19 0 Calma 4 Nordeste 0 -- -- 50
2020-09-14 08:00:00 10.7 0 Calma 5 Este 0 -- -- 79
2020-09-14 07:00:00 11.2 4 Este 6 Nordeste 0 -- -- 74
2020-09-14 06:00:00 11.7 3 Nordeste 4 Nordeste 0 -- -- 70
2020-09-14 05:00:00 12.8 0 Calma 9 Sur 0 -- -- 66
2020-09-14 04:00:00 16.1 6 Sur 13 Sur 0 -- -- 55
2020-09-14 03:00:00 15.8 5 Sudoeste 10 Sudoeste 0 -- -- 53
2020-09-14 02:00:00 16.9 5 Sur 12 Sudeste 0 -- -- 48
2020-09-14 01:00:00 18.5 8 Sudeste 15 Este 0 -- -- 43
2020-09-14 00:00:00 18.9 10 Sudeste 15 Este 0 -- -- 37
2020-09-13 23:00:00 19.3 7 Sudeste 15 Sudeste 0 -- -- 37
2020-09-13 22:00:00 21.3 8 Sudeste 18 Sudeste 0 -- -- 34
2020-09-13 21:00:00 21.9 8 Sudoeste 14 Sudoeste 0 -- -- 35
2020-09-13 20:00:00 24.3 2 Sur 23 Sudoeste 0 -- -- 31
2020-09-13 19:00:00 28.4 12 Sudoeste 26 Sudoeste 0 -- -- 23
2020-09-13 18:00:00 29.6 9 Sur 27 Sur 0 -- -- 20
2020-09-13 17:00:00 30.3 12 Sur 27 Sudoeste 0 -- -- 19
2020-09-13 16:00:00 29.6 14 Sudoeste 29 Sudoeste 0 -- -- 21
2020-09-13 15:00:00 29.4 12 Sudoeste 34 Sur 0 -- -- 22
2020-09-13 14:00:00 28.5 14 Sur 27 Sudoeste 0 -- -- 24
2020-09-13 13:00:00 27.2 15 Sur 31 Sur 0 -- -- 28
2020-09-13 12:00:00 25.9 12 Sur 28 Sudoeste 0 -- -- 33
2020-09-13 11:00:00 22.8 8 Sur 19 Sur 0 -- -- 44
2020-09-13 10:00:00 21 4 Sudeste 9 Sudeste 0 -- -- 47
2020-09-13 09:00:00 17.3 3 Este 5 Nordeste 0 -- -- 54
2020-09-13 08:00:00 10.7 0 Calma 7 Nordeste 0 -- -- 75
2020-09-13 07:00:00 11.1 4 Nordeste 6 Nordeste 0 -- -- 76
2020-09-13 06:00:00 12 4 Nordeste 9 Nordeste 0 -- -- 72
2020-09-13 05:00:00 12.3 3 Nordeste 6 Nordeste 0 -- -- 74
2020-09-13 04:00:00 12 3 Nordeste 7 Este 0 -- -- 76
2020-09-13 03:00:00 12.5 0 Calma 9 Este 0 -- -- 70
2020-09-13 02:00:00 14.7 5 Nordeste 8 Nordeste 0 -- -- 58
2020-09-13 01:00:00 14.7 5 Nordeste 11 Este 0 -- -- 61
2020-09-13 00:00:00 14.6 9 Este 12 Este 0 -- -- 66
2020-09-12 23:00:00 16.4 9 Este 15 Este 0 -- -- 61
2020-09-12 22:00:00 18.8 10 Este 19 Nordeste 0 -- -- 51
2020-09-12 21:00:00 20.3 9 Nordeste 23 Este 0 -- -- 46
2020-09-12 20:00:00 23.3 14 Este 27 Nordeste 0 -- -- 38
2020-09-12 19:00:00 27.7 9 Nordeste 23 Sudeste 0 -- -- 12
2020-09-12 18:00:00 28.6 10 Este 26 Este 0 -- -- 11
2020-09-12 17:00:00 28.7 9 Nordeste 23 Este 0 -- -- 12
2020-09-12 16:00:00 28.6 13 Sudeste 21 Sur 0 -- -- 15
2020-09-12 15:00:00 27.8 14 Nordeste 23 Nordeste 0 -- -- 15
2020-09-12 14:00:00 27.6 5 Este 19 Noroeste 0 -- -- 18
2020-09-12 13:00:00 25.5 7 Sudoeste 17 Este 0 -- -- 26
2020-09-12 12:00:00 23.8 10 Este 18 Sudeste 0 -- -- 38
2020-09-12 11:00:00 21.9 7 Sudeste 17 Este 0 -- -- 42
2020-09-12 10:00:00 19.5 9 Este 13 Este 0 -- -- 39
2020-09-12 09:00:00 16.9 2 Norte 5 Noroeste 0 -- -- 51
2020-09-12 08:00:00 9.6 4 Norte 5 Nordeste 0 -- -- 75
2020-09-12 07:00:00 10.3 3 Nordeste 7 Nordeste 0 -- -- 78
2020-09-12 06:00:00 10.5 2 Norte 6 Norte 0 -- -- 85
2020-09-12 05:00:00 12.5 4 Norte 6 Norte 0 -- -- 83
2020-09-12 04:00:00 11.3 4 Nordeste 7 Este 0 -- -- 91
2020-09-12 03:00:00 13 6 Este 8 Este 0 -- -- 85
2020-09-12 02:00:00 13.4 7 Este 13 Este 0 -- -- 82
2020-09-12 01:00:00 15.2 10 Este 14 Nordeste 0 -- -- 73
2020-09-12 00:00:00 16.9 8 Nordeste 17 Nordeste 0 -- -- 66
2020-09-11 23:00:00 17.4 7 Nordeste 15 Nordeste 0 -- -- 59
2020-09-11 22:00:00 18.6 7 Nordeste 15 Nordeste 0 -- -- 42
2020-09-11 21:00:00 20.1 8 Nordeste 20 Nordeste 0 -- -- 42
2020-09-11 20:00:00 23.2 13 Nordeste 28 Nordeste 0 -- -- 40
2020-09-11 19:00:00 25.5 16 Nordeste 28 Nordeste 0 -- -- 36
2020-09-11 18:00:00 29.5 10 Sudoeste 24 Sudoeste 0 -- -- 16
2020-09-11 17:00:00 29.2 6 Norte 21 Oeste 0 -- -- 18
2020-09-11 16:00:00 28.6 9 Este 21 Oeste 0 -- -- 21
2020-09-11 15:00:00 27.9 8 Noroeste 22 Noroeste 0 -- -- 22
2020-09-11 14:00:00 25.7 10 Norte 19 Nordeste 0 -- -- 27
2020-09-11 13:00:00 25.6 10 Oeste 20 Oeste 0 -- -- 27
2020-09-11 12:00:00 23.6 5 Este 15 Sudeste 0 -- -- 33
2020-09-11 11:00:00 22.8 4 Nordeste 7 Este 0 -- -- 35
2020-09-11 10:00:00 19.6 5 Norte 8 Norte 0 -- -- 48
2020-09-11 09:00:00 16.4 3 Noroeste 8 Noroeste 0 -- -- 59
2020-09-11 08:00:00 10.5 6 Norte 11 Noroeste 0 -- -- 78
2020-09-11 07:00:00 9.4 5 Noroeste 8 Norte 0 -- -- 80
2020-09-11 06:00:00 12 5 Norte 9 Norte 0 -- -- 70
2020-09-11 05:00:00 11.8 5 Nordeste 12 Este 0 -- -- 70
2020-09-11 04:00:00 8.1 2 Sudeste 4 Oeste 0 -- -- 86
2020-09-11 03:00:00 10.5 3 Sudoeste 8 Norte 0 -- -- 74
2020-09-11 02:00:00 13.7 5 Norte 15 Nordeste 0 -- -- 62
2020-09-11 01:00:00 14.6 7 Nordeste 16 Nordeste 0 -- -- 59
2020-09-11 00:00:00 15.5 10 Nordeste 17 Nordeste 0 -- -- 56
2020-09-10 23:00:00 16.1 8 Nordeste 13 Nordeste 0 -- -- 52
2020-09-10 22:00:00 16.8 7 Nordeste 22 Norte 0 -- -- 48
2020-09-10 21:00:00 19.5 12 Nordeste 23 Nordeste 0 -- -- 41
2020-09-10 20:00:00 21.8 11 Nordeste 27 Norte 0 -- -- 33
2020-09-10 19:00:00 24.4 13 Nordeste 27 Norte 0 -- -- 29
2020-09-10 18:00:00 25.7 12 Norte 26 Norte 0 -- -- 27
2020-09-10 17:00:00 26.6 10 Nordeste 27 Nordeste 0 -- -- 27
2020-09-10 16:00:00 26.3 12 Norte 26 Nordeste 0 -- -- 27
2020-09-10 15:00:00 25.1 15 Nordeste 31 Nordeste 0 -- -- 30
2020-09-10 14:00:00 25.4 15 Nordeste 30 Norte 0 -- -- 31
2020-09-10 13:00:00 24.3 15 Nordeste 35 Nordeste 0 -- -- 34
2020-09-10 12:00:00 22.9 16 Nordeste 32 Este 0 -- -- 39
2020-09-10 11:00:00 21.4 14 Nordeste 24 Nordeste 0 -- -- 42
2020-09-10 10:00:00 18.8 10 Nordeste 22 Norte 0 -- -- 53
2020-09-10 09:00:00 16.9 5 Norte 12 Norte 0 -- -- 59
2020-09-10 08:00:00 11.1 4 Sudoeste 10 Nordeste 0 -- -- 80
2020-09-10 07:00:00 12.7 8 Nordeste 15 Norte 0 -- -- 73
2020-09-10 06:00:00 13.8 8 Norte 17 Noroeste 0 -- -- 68
2020-09-10 05:00:00 13.6 3 Norte 17 Nordeste 0 -- -- 68
2020-09-10 04:00:00 13.7 5 Nordeste 20 Norte 0 -- -- 69
2020-09-10 03:00:00 14.7 14 Nordeste 23 Nordeste 0 -- -- 66
2020-09-10 02:00:00 15 11 Nordeste 28 Norte 0 -- -- 66
2020-09-10 01:00:00 15.4 10 Nordeste 20 Nordeste 0 -- -- 65
2020-09-10 00:00:00 16.2 10 Norte 22 Norte 0 -- -- 65
2020-09-09 23:00:00 16.9 11 Nordeste 24 Nordeste 0 -- -- 62
2020-09-09 22:00:00 17.9 10 Nordeste 20 Nordeste 0 -- -- 55
2020-09-09 21:00:00 19.3 8 Nordeste 19 Norte 0 -- -- 40
2020-09-09 20:00:00 22.2 11 Nordeste 27 Nordeste 0 -- -- 32
2020-09-09 19:00:00 24.4 15 Nordeste 27 Nordeste 0 -- -- 27
2020-09-09 18:00:00 24.7 13 Nordeste 30 Norte 0 -- -- 25
2020-09-09 17:00:00 26.1 13 Nordeste 24 Norte 0 -- -- 25
2020-09-09 16:00:00 23.5 8 Norte 25 Nordeste 0 -- -- 28
2020-09-09 15:00:00 25.6 8 Este 28 Este 0 -- -- 26
2020-09-09 14:00:00 24.7 8 Este 28 Este 0 -- -- 28
2020-09-09 13:00:00 24 4 Oeste 21 Este 0 -- -- 30
2020-09-09 12:00:00 22.5 6 Oeste 15 Este 0 -- -- 34
2020-09-09 11:00:00 21.7 5 Este 14 Este 0 -- -- 35
2020-09-09 10:00:00 20.3 2 Este 9 Este 0 -- -- 37
2020-09-09 09:00:00 17.9 0 Calma 6 Norte 0 -- -- 45
2020-09-09 08:00:00 8.1 4 Norte 8 Nordeste 0 -- -- 72
2020-09-09 07:00:00 8.1 3 Nordeste 8 Nordeste 0 -- -- 71
2020-09-09 06:00:00 7.9 3 Norte 9 Nordeste 0 -- -- 71
2020-09-09 05:00:00 8 3 Noroeste 7 Este 0 -- -- 69
2020-09-09 04:00:00 9.7 4 Nordeste 9 Este 0 -- -- 62
2020-09-09 03:00:00 9.7 4 Este 10 Este 0 -- -- 62
2020-09-09 02:00:00 11.2 7 Este 12 Este 0 -- -- 57
2020-09-09 01:00:00 10.7 6 Este 9 Este 0 -- -- 59
2020-09-09 00:00:00 11.4 7 Este 10 Este 0 -- -- 58
2020-09-08 23:00:00 13.9 9 Este 13 Este 0 -- -- 48
2020-09-08 22:00:00 14.9 8 Este 19 Este 0 -- -- 45
2020-09-08 21:00:00 17 13 Este 21 Este 0 -- -- 40
2020-09-08 20:00:00 20.1 13 Este 24 Este 0 -- -- 30
2020-09-08 19:00:00 22.5 14 Este 32 Este 0 -- -- 26
2020-09-08 18:00:00 23 17 Este 31 Este 0 -- -- 25
2020-09-08 17:00:00 23.1 12 Este 27 Este 0 -- -- 26
2020-09-08 16:00:00 22.7 14 Este 31 Este 0 -- -- 27
2020-09-08 15:00:00 22.1 14 Sudeste 31 Este 0 -- -- 30
2020-09-08 14:00:00 20.6 16 Este 32 Este 0 -- -- 32
2020-09-08 13:00:00 19.7 15 Este 30 Este 0 -- -- 37
2020-09-08 12:00:00 17.5 14 Este 28 Este 0 -- -- 45
2020-09-08 11:00:00 16.1 14 Este 25 Este 0 -- -- 51
2020-09-08 10:00:00 13.6 17 Este 26 Este 0 -- -- 57
2020-09-08 09:00:00 10.6 10 Este 15 Este 0 -- -- 70
2020-09-08 08:00:00 6.6 8 Este 11 Este 0 -- -- 86
2020-09-08 07:00:00 6.2 5 Nordeste 11 Este 0 -- -- 89
2020-09-08 06:00:00 6.5 4 Nordeste 15 Nordeste 0 -- -- 88
2020-09-08 05:00:00 7.3 7 Nordeste 13 Nordeste 0 -- -- 83
2020-09-08 04:00:00 7.1 5 Nordeste 17 Nordeste 0 -- -- 82
2020-09-08 03:00:00 9.1 13 Nordeste 24 Nordeste 0 -- -- 74
2020-09-08 02:00:00 9.8 11 Norte 31 Nordeste 0 -- -- 71
2020-09-08 01:00:00 10.1 15 Nordeste 31 Nordeste 0 -- -- 68
2020-09-08 00:00:00 10 11 Nordeste 26 Nordeste 0 -- -- 66
2020-09-07 23:00:00 10.3 10 Nordeste 24 Nordeste 0 -- -- 60
2020-09-07 22:00:00 11.7 13 Nordeste 35 Nordeste 0 -- -- 54
2020-09-07 21:00:00 13.8 24 Nordeste 38 Norte 0 -- -- 47
2020-09-07 20:00:00 16.4 15 Norte 33 Norte 0 -- -- 40
2020-09-07 19:00:00 18 21 Norte 39 Norte 0 -- -- 36
2020-09-07 18:00:00 19.8 21 Norte 36 Norte 0 -- -- 34
2020-09-07 17:00:00 21 14 Norte 35 Norte 0 -- -- 30
2020-09-07 16:00:00 20.2 20 Nordeste 35 Nordeste 0 -- -- 31
2020-09-07 15:00:00 19.8 14 Nordeste 32 Nordeste 0 -- -- 30
2020-09-07 14:00:00 18.4 16 Norte 36 Nordeste 0 -- -- 39
2020-09-07 13:00:00 17.6 16 Norte 42 Este 0 -- -- 42
2020-09-07 12:00:00 15.7 15 Norte 28 Norte 0 -- -- 51
2020-09-07 11:00:00 13.5 18 Norte 34 Nordeste 0 -- -- 58
2020-09-07 10:00:00 13.5 19 Nordeste 36 Norte 0 -- -- 56
2020-09-07 09:00:00 12 10 Norte 36 Nordeste 0 -- -- 63
2020-09-07 08:00:00 9.6 14 Norte 34 Norte 0 -- -- 69
2020-09-07 07:00:00 9.3 15 Norte 32 Norte 0 -- -- 70
2020-09-07 06:00:00 8.7 8 Nordeste 21 Nordeste 0 -- -- 80
2020-09-07 05:00:00 9.5 12 Nordeste 28 Nordeste 0 -- -- 77
2020-09-07 04:00:00 9.7 15 Nordeste 27 Nordeste 0 -- -- 75
2020-09-07 03:00:00 10 14 Nordeste 25 Nordeste 0 -- -- 71
2020-09-07 02:00:00 10.2 12 Nordeste 26 Nordeste 0 -- -- 73
2020-09-07 01:00:00 10.8 13 Nordeste 23 Nordeste 0 -- -- 73
2020-09-07 00:00:00 11.1 11 Nordeste 24 Nordeste 0 -- -- 71
2020-09-06 23:00:00 11.8 14 Nordeste 26 Nordeste 0 -- -- 67
2020-09-06 22:00:00 13 17 Nordeste 34 Nordeste 0 -- -- 62
2020-09-06 21:00:00 15 15 Nordeste 32 Nordeste 0 -- -- 59
2020-09-06 20:00:00 17.8 17 Nordeste 33 Nordeste 0 -- -- 52
2020-09-06 19:00:00 20.9 17 Nordeste 37 Este 0 -- -- 47
2020-09-06 18:00:00 23 19 Nordeste 30 Este 0 -- -- 43
2020-09-06 17:00:00 22.7 17 Nordeste 29 Nordeste 0 -- -- 44
2020-09-06 16:00:00 25 17 Este 31 Este 0 -- -- 39
2020-09-06 15:00:00 25.2 17 Este 29 Este 0 -- -- 39
2020-09-06 14:00:00 23.7 14 Este 24 Este 0 -- -- 42
2020-09-06 13:00:00 22.7 11 Este 21 Este 0 -- -- 45
2020-09-06 12:00:00 21 12 Sudeste 22 Este 0 -- -- 51
2020-09-06 11:00:00 18 13 Este 20 Este 0 -- -- 65
2020-09-06 10:00:00 14.4 12 Este 16 Este 0 -- -- 80
2020-09-06 09:00:00 12.9 10 Este 17 Este 0 -- -- 88
2020-09-06 08:00:00 11.1 8 Sudeste 12 Este 0 -- -- 97
2020-09-06 07:00:00 10.8 8 Este 10 Este 0 -- -- 97
2020-09-06 06:00:00 10.7 8 Este 11 Este 0 -- -- 97
2020-09-06 05:00:00 11.4 6 Nordeste 10 Este 0 -- -- 94
2020-09-06 04:00:00 11.7 5 Nordeste 11 Nordeste 0 -- -- 93
2020-09-06 03:00:00 12.2 9 Este 13 Este 0 -- -- 91
2020-09-06 02:00:00 13 8 Este 16 Este 0 -- -- 88
2020-09-06 01:00:00 13.3 10 Este 17 Este 0 -- -- 87
2020-09-06 00:00:00 14.2 11 Este 20 Este 0 -- -- 84
2020-09-05 23:00:00 15.1 11 Este 21 Este 0 -- -- 80
2020-09-05 22:00:00 17.4 9 Este 20 Este 0 -- -- 71
2020-09-05 21:00:00 19.6 13 Nordeste 28 Este 0 -- -- 64
2020-09-05 20:00:00 22.4 17 Nordeste 32 Nordeste 0 -- -- 53
2020-09-05 19:00:00 26 19 Nordeste 31 Nordeste 0 -- -- 39
2020-09-05 18:00:00 26.4 20 Este 33 Este 0 -- -- 37
2020-09-05 17:00:00 28.6 15 Este 27 Este 0 -- -- 32
2020-09-05 16:00:00 27 14 Este 24 Este 0 -- -- 34
2020-09-05 15:00:00 29.6 12 Sudeste 23 Sudeste 0 -- -- 26
2020-09-05 14:00:00 27.6 8 Nordeste 23 Sudeste 0 -- -- 30
2020-09-05 13:00:00 26.2 12 Este 25 Este 0 -- -- 33
2020-09-05 12:00:00 24.8 12 Este 20 Este 0 -- -- 36
2020-09-05 11:00:00 23.2 12 Este 17 Este 0 -- -- 40
2020-09-05 10:00:00 22.2 5 Este 14 Este 0 -- -- 45
2020-09-05 09:00:00 21.7 2 Este 6 Sudeste 0 -- -- 45
2020-09-05 08:00:00 14.1 6 Sudeste 6 Sudeste 0 -- -- 61
2020-09-05 07:00:00 13.2 6 Sudeste 7 Sudeste 0 -- -- 62
2020-09-05 06:00:00 13.4 7 Sudeste 9 Este 0 -- -- 64
2020-09-05 05:00:00 12.3 3 Este 7 Nordeste 0 -- -- 69
2020-09-05 04:00:00 12.9 4 Nordeste 6 Este 0 -- -- 65
2020-09-05 03:00:00 14.3 3 Nordeste 10 Este 0 -- -- 59
2020-09-05 02:00:00 15 8 Este 10 Este 0 -- -- 57
2020-09-05 01:00:00 15.7 7 Este 11 Este 0 -- -- 55
2020-09-05 00:00:00 17.2 8 Este 11 Este 0 -- -- 51
2020-09-04 23:00:00 19.8 7 Sudeste 18 Sudeste 0 -- -- 43
2020-09-04 22:00:00 21.6 9 Sudeste 23 Sudeste 0 -- -- 38
2020-09-04 21:00:00 22.3 7 Sudoeste 10 Sur 0 -- -- 33
2020-09-04 20:00:00 27.8 7 Sur 18 Sudoeste 0 -- -- 24
2020-09-04 19:00:00 29.7 10 Sur 19 Sudoeste 0 -- -- 20
2020-09-04 18:00:00 31 10 Sudoeste 25 Sur 0 -- -- 19
2020-09-04 17:00:00 30.9 9 Sudeste 33 Sur 0 -- -- 20
2020-09-04 16:00:00 30.1 12 Sudoeste 34 Sudeste 0 -- -- 21
2020-09-04 15:00:00 30.1 11 Sudeste 32 Oeste 0 -- -- 22
2020-09-04 14:00:00 29.1 9 Sudeste 21 Sudeste 0 -- -- 27
2020-09-04 13:00:00 26.9 9 Sur 23 Este 0 -- -- 35
2020-09-04 12:00:00 25.1 7 Sudeste 15 Sur 0 -- -- 40
2020-09-04 11:00:00 22.3 7 Sur 15 Sudeste 0 -- -- 49
2020-09-04 10:00:00 20.1 8 Sur 15 Sur 0 -- -- 57
2020-09-04 09:00:00 19.8 3 Sudeste 5 Este 0 -- -- 45
2020-09-04 08:00:00 11.6 3 Este 6 Este 0 -- -- 64
2020-09-04 07:00:00 12.1 5 Este 9 Este 0 -- -- 61
2020-09-04 06:00:00 12.1 6 Este 8 Este 0 -- -- 64
2020-09-04 05:00:00 11 2 Norte 6 Este 0 -- -- 65
2020-09-04 04:00:00 11.2 3 Este 9 Este 0 -- -- 66
2020-09-04 03:00:00 12.3 5 Nordeste 12 Nordeste 0 -- -- 57
2020-09-04 02:00:00 14.2 8 Nordeste 10 Nordeste 0 -- -- 51
2020-09-04 01:00:00 13.4 3 Este 6 Este 0 -- -- 52
2020-09-04 00:00:00 14.5 5 Este 6 Este 0 -- -- 48
2020-09-03 23:00:00 16 5 Este 16 Sudeste 0 -- -- 45
2020-09-03 22:00:00 20.4 14 Este 23 Este 0 -- -- 34
2020-09-03 21:00:00 21.3 10 Este 15 Este 0 -- -- 32
2020-09-03 20:00:00 26.2 9 Este 19 Este 0 -- -- 17
2020-09-03 19:00:00 28.1 11 Este 24 Sudeste 0 -- -- 16
2020-09-03 18:00:00 29.3 9 Este 21 Este 0 -- -- 12
2020-09-03 17:00:00 29.4 9 Este 22 Este 0 -- -- 11
2020-09-03 16:00:00 29 10 Este 27 Este 0 -- -- 13
2020-09-03 15:00:00 28.8 6 Este 19 Sudeste 0 -- -- 17
2020-09-03 14:00:00 28.5 8 Oeste 14 Oeste 0 -- -- 17
2020-09-03 13:00:00 25.5 7 Sudeste 15 Sudeste 0 -- -- 22
2020-09-03 12:00:00 23.2 6 Sudoeste 12 Sur 0 -- -- 32
2020-09-03 11:00:00 20.3 6 Sur 18 Sur 0 -- -- 44
2020-09-03 10:00:00 18.9 4 Este 10 Nordeste 0 -- -- 41
2020-09-03 09:00:00 14.8 5 Nordeste 9 Este 0 -- -- 51
2020-09-03 08:00:00 7.7 3 Nordeste 5 Norte 0 -- -- 79
2020-09-03 07:00:00 6.3 4 Norte 6 Norte 0 -- -- 86
2020-09-03 06:00:00 7.4 3 Norte 6 Nordeste 0 -- -- 83
2020-09-03 05:00:00 7.4 3 Norte 4 Nordeste 0 -- -- 84
2020-09-03 04:00:00 8 3 Nordeste 6 Este 0 -- -- 82
2020-09-03 03:00:00 9.2 5 Este 8 Este 0 -- -- 77
2020-09-03 02:00:00 10.3 6 Este 10 Sudeste 0 -- -- 72
2020-09-03 01:00:00 10.6 8 Este 13 Este 0 -- -- 70
2020-09-03 00:00:00 12.2 10 Este 14 Este 0 -- -- 62
2020-09-02 23:00:00 14.2 8 Este 15 Este 0 -- -- 51
2020-09-02 22:00:00 16.3 8 Nordeste 18 Este 0 -- -- 44
2020-09-02 21:00:00 17.8 10 Este 26 Este 0 -- -- 39
2020-09-02 20:00:00 21.1 18 Este 29 Este 0 -- -- 33
2020-09-02 19:00:00 25.7 6 Sudeste 36 Oeste 0 -- -- 22
2020-09-02 18:00:00 26.3 5 Este 18 Nordeste 0 -- -- 22
2020-09-02 17:00:00 25.3 10 Nordeste 19 Nordeste 0 -- -- 22
2020-09-02 16:00:00 24.7 8 Nordeste 21 Noroeste 0 -- -- 21
2020-09-02 15:00:00 24.1 9 Noroeste 18 Norte 0 -- -- 23
2020-09-02 14:00:00 22.3 9 Nordeste 20 Norte 0 -- -- 28
2020-09-02 13:00:00 21.6 4 Sudeste 24 Nordeste 0 -- -- 31
2020-09-02 12:00:00 19.1 12 Nordeste 27 Este 0 -- -- 38
2020-09-02 11:00:00 17.6 14 Nordeste 27 Nordeste 0 -- -- 45
2020-09-02 10:00:00 15.5 12 Norte 21 Nordeste 0 -- -- 54
2020-09-02 09:00:00 12.9 8 Nordeste 14 Nordeste 0 -- -- 67
2020-09-02 08:00:00 9.7 7 Nordeste 15 Este 0 -- -- 80
2020-09-02 07:00:00 8.8 7 Nordeste 12 Nordeste 0 -- -- 83
2020-09-02 06:00:00 9.3 8 Nordeste 15 Nordeste 0 -- -- 80
2020-09-02 05:00:00 9.3 7 Nordeste 14 Nordeste 0 -- -- 77
2020-09-02 04:00:00 10.5 9 Nordeste 19 Nordeste 0 -- -- 71
2020-09-02 03:00:00 10.6 10 Nordeste 17 Este 0 -- -- 70
2020-09-02 02:00:00 11 8 Este 15 Este 0 -- -- 71
2020-09-02 01:00:00 11.7 9 Este 15 Este 0 -- -- 68
2020-09-02 00:00:00 12.6 9 Nordeste 25 Nordeste 0 -- -- 62
2020-09-01 23:00:00 13.9 12 Nordeste 27 Nordeste 0 -- -- 55
2020-09-01 22:00:00 15.5 14 Nordeste 28 Nordeste 0 -- -- 49
2020-09-01 21:00:00 17.3 13 Nordeste 29 Nordeste 0 -- -- 38
2020-09-01 20:00:00 19.5 14 Nordeste 28 Este 0 -- -- 28
2020-09-01 19:00:00 21.7 18 Nordeste 31 Nordeste 0 -- -- 29
2020-09-01 18:00:00 22.4 14 Este 31 Este 0 -- -- 28
2020-09-01 17:00:00 25.1 9 Nordeste 22 Nordeste 0 -- -- 18
2020-09-01 16:00:00 24.5 10 Nordeste 21 Este 0 -- -- 19
2020-09-01 15:00:00 24.4 8 Norte 31 Nordeste 0 -- -- 18
2020-09-01 14:00:00 22.8 7 Norte 23 Norte 0 -- -- 20
2020-09-01 13:00:00 21.6 8 Sur 16 Sudeste 0 -- -- 27
2020-09-01 12:00:00 20 5 Noroeste 11 Nordeste 0 -- -- 31
2020-09-01 11:00:00 16.9 2 Norte 9 Norte 0 -- -- 39
2020-09-01 10:00:00 15.5 3 Nordeste 6 Norte 0 -- -- 46
2020-09-01 09:00:00 11 0 Calma 9 Noroeste 0 -- -- 68
2020-09-01 08:00:00 10.2 5 Norte 8 Este 0 -- -- 67
2020-09-01 07:00:00 9.1 5 Sudeste 8 Sudeste 0 -- -- 74
2020-09-01 06:00:00 9.8 5 Norte 7 Norte 0 -- -- 69
2020-09-01 05:00:00 8.8 3 Noroeste 5 Norte 0 -- -- 74
2020-09-01 04:00:00 9.3 4 Este 8 Nordeste 0 -- -- 74
2020-09-01 03:00:00 10.5 4 Este 10 Este 0 -- -- 66
2020-09-01 02:00:00 8.5 5 Este 14 Este 0 -- -- 66
2020-09-01 01:00:00 11.4 8 Sudeste 10 Sudeste 0 -- -- 50
2020-09-01 00:00:00 10.6 6 Este 8 Este 0 -- -- 54
2020-08-31 23:00:00 12 2 Nordeste 14 Nordeste 0 -- -- 42
2020-08-31 22:00:00 14 5 Oeste 9 Oeste 0 -- -- 33
2020-08-31 21:00:00 16.7 5 Oeste 13 Noroeste 0 -- -- 29
2020-08-31 20:00:00 19.3 9 Oeste 22 Oeste 0 -- -- 25
2020-08-31 19:00:00 21.5 11 Oeste 26 Oeste 0 -- -- 22
2020-08-31 18:00:00 24.1 10 Oeste 32 Sudoeste 0 -- -- 17
2020-08-31 17:00:00 23.4 16 Oeste 31 Noroeste 0 -- -- 11
2020-08-31 16:00:00 23.3 11 Oeste 28 Oeste 0 -- -- 17
2020-08-31 15:00:00 22.4 11 Oeste 22 Noroeste 0 -- -- 16
2020-08-31 14:00:00 20.6 10 Sudoeste 21 Oeste 0 -- -- 25
2020-08-31 13:00:00 19.1 9 Noroeste 21 Oeste 0 -- -- 29
2020-08-31 12:00:00 18.2 8 Oeste 24 Sudoeste 0 -- -- 34
2020-08-31 11:00:00 16.2 5 Noroeste 13 Oeste 0 -- -- 44
2020-08-31 10:00:00 13.7 5 Noroeste 8 Noroeste 0 -- -- 52
2020-08-31 09:00:00 13.4 0 Calma 4 Norte 0 -- -- 59
2020-08-31 08:00:00 3.4 3 Noroeste 4 Noroeste 0 -- -- 98
2020-08-31 07:00:00 2.5 2 Noroeste 4 Nordeste 0 -- -- 98
2020-08-31 06:00:00 3.2 3 Norte 8 Norte 0 -- -- 95
2020-08-31 05:00:00 2.8 4 Norte 6 Nordeste 0 -- -- 97
2020-08-31 04:00:00 4.8 3 Norte 7 Nordeste 0 -- -- 89
2020-08-31 03:00:00 6.3 6 Nordeste 12 Nordeste 0 -- -- 85
2020-08-31 02:00:00 7.2 8 Nordeste 15 Nordeste 0 -- -- 80
2020-08-31 01:00:00 7.8 8 Nordeste 17 Nordeste 0 -- -- 78
2020-08-31 00:00:00 8.3 9 Nordeste 22 Nordeste 0 -- -- 75
2020-08-30 23:00:00 8.6 11 Norte 23 Norte 0 -- -- 74
2020-08-30 22:00:00 9.4 10 Norte 22 Norte 0 -- -- 73
2020-08-30 21:00:00 11.3 13 Nordeste 28 Norte 0 -- -- 62
2020-08-30 20:00:00 13.5 9 Norte 28 Nordeste 0 -- -- 48
2020-08-30 19:00:00 15.8 12 Norte 30 Norte 0 -- -- 41
2020-08-30 18:00:00 16.6 12 Norte 27 Noroeste 0 -- -- 38
2020-08-30 17:00:00 18.3 9 Norte 27 Norte 0 -- -- 34
2020-08-30 16:00:00 16.8 13 Norte 27 Nordeste 0 -- -- 38
2020-08-30 15:00:00 17.1 14 Norte 29 Nordeste 0 -- -- 36
2020-08-30 14:00:00 17.1 7 Norte 19 Nordeste 0 -- -- 36
2020-08-30 13:00:00 16.1 12 Este 29 Sur 0 -- -- 39
2020-08-30 12:00:00 13.6 8 Noroeste 20 Oeste 0 -- -- 44
2020-08-30 11:00:00 13.5 7 Nordeste 18 Nordeste 0 -- -- 56
2020-08-30 10:00:00 13 8 Noroeste 13 Oeste 0 -- -- 58
2020-08-30 09:00:00 8.8 7 Noroeste 15 Sudoeste 0 -- -- 79
2020-08-30 08:00:00 4.2 8 Sudoeste 13 Oeste 0 -- -- 95
2020-08-30 07:00:00 2.9 6 Oeste 13 Oeste 0 -- -- 96
2020-08-30 06:00:00 3.9 10 Oeste 15 Oeste 0 -- -- 94
2020-08-30 05:00:00 4 9 Sudoeste 14 Oeste 0 -- -- 94
2020-08-30 04:00:00 3.7 6 Sudoeste 9 Oeste 0 -- -- 95
2020-08-30 03:00:00 4.2 3 Sudoeste 6 Noroeste 0 -- -- 93
2020-08-30 02:00:00 5.6 3 Nordeste 16 Norte 0 -- -- 85
2020-08-30 01:00:00 6.2 7 Noroeste 13 Norte 0 -- -- 88
2020-08-30 00:00:00 6.9 4 Sudeste 15 Oeste 0 -- -- 88
2020-08-29 23:00:00 9 11 Norte 26 Norte 0 -- -- 79
2020-08-29 22:00:00 9.3 14 Noroeste 23 Noroeste 0 -- -- 80
2020-08-29 21:00:00 9.8 10 Noroeste 29 Noroeste 0 -- -- 82
2020-08-29 20:00:00 11 9 Noroeste 14 Nordeste 0.2 -- -- 83
2020-08-29 19:00:00 9.9 10 Norte 39 Noroeste 0.6 -- -- 82
2020-08-29 18:00:00 14.6 15 Norte 42 Noroeste 0 -- -- 52
2020-08-29 17:00:00 16.7 24 Noroeste 48 Noroeste 0 -- -- 43
2020-08-29 16:00:00 17 20 Noroeste 40 Oeste 0 -- -- 41
2020-08-29 15:00:00 18.5 17 Noroeste 32 Oeste 0 -- -- 36
2020-08-29 14:00:00 17.1 14 Norte 31 Norte 0 -- -- 37
2020-08-29 13:00:00 17.3 14 Noroeste 29 Noroeste 0 -- -- 39
2020-08-29 12:00:00 15 10 Norte 27 Noroeste 0 -- -- 47
2020-08-29 11:00:00 15.1 12 Noroeste 27 Norte 0 -- -- 47
2020-08-29 10:00:00 14.7 6 Noroeste 13 Noroeste 0 -- -- 51
2020-08-29 09:00:00 12.9 3 Norte 7 Norte 0 -- -- 60
2020-08-29 08:00:00 6.7 3 Nordeste 5 Norte 0 -- -- 90
2020-08-29 07:00:00 5.8 2 Norte 8 Nordeste 0 -- -- 92
2020-08-29 06:00:00 7.1 3 Nordeste 7 Norte 0 -- -- 87
2020-08-29 05:00:00 8.4 4 Norte 15 Nordeste 0 -- -- 82
2020-08-29 04:00:00 9.4 6 Nordeste 13 Norte 0 -- -- 77
2020-08-29 03:00:00 10.1 9 Nordeste 25 Norte 0 -- -- 74
2020-08-29 02:00:00 10.9 13 Nordeste 32 Nordeste 0 -- -- 70
2020-08-29 01:00:00 10.8 15 Nordeste 29 Norte 0 -- -- 75
2020-08-29 00:00:00 10.9 14 Nordeste 28 Nordeste 0 -- -- 81
2020-08-28 23:00:00 11.2 16 Nordeste 33 Este 0 -- -- 85
2020-08-28 22:00:00 11.9 15 Nordeste 33 Nordeste 0 -- -- 83
2020-08-28 21:00:00 13.2 20 Este 38 Nordeste 0 -- -- 82
2020-08-28 20:00:00 17.6 17 Nordeste 29 Nordeste 0 -- -- 64
2020-08-28 19:00:00 18.8 16 Nordeste 36 Norte 0 -- -- 63
2020-08-28 18:00:00 27.3 17 Oeste 38 Noroeste 0 -- -- 26
2020-08-28 17:00:00 26.7 21 Noroeste 41 Oeste 0 -- -- 33
2020-08-28 16:00:00 26.9 20 Oeste 37 Oeste 0 -- -- 35
2020-08-28 15:00:00 25.2 19 Oeste 38 Oeste 0 -- -- 41
2020-08-28 14:00:00 25.2 21 Oeste 37 Oeste 0 -- -- 44
2020-08-28 13:00:00 24.4 22 Oeste 36 Oeste 0 -- -- 48
2020-08-28 12:00:00 22.4 19 Oeste 36 Oeste 0 -- -- 58
2020-08-28 11:00:00 21.9 15 Oeste 30 Oeste 0 -- -- 63
2020-08-28 10:00:00 19.4 15 Oeste 34 Oeste 0 -- -- 70
2020-08-28 09:00:00 18 16 Oeste 34 Oeste 0 -- -- 72
2020-08-28 08:00:00 16.8 20 Oeste 30 Oeste 0 -- -- 80
2020-08-28 07:00:00 16.6 11 Oeste 21 Oeste 0 -- -- 71
2020-08-28 06:00:00 14.9 9 Oeste 14 Noroeste 0 -- -- 93
2020-08-28 05:00:00 14.8 7 Oeste 10 Noroeste 0 -- -- 91
2020-08-28 04:00:00 15.4 2 Norte 12 Este 0 -- -- 87
2020-08-28 03:00:00 16.1 5 Nordeste 7 Nordeste 0 -- -- 87
2020-08-28 02:00:00 17.5 5 Nordeste 8 Nordeste 0 -- -- 82
2020-08-28 01:00:00 18.4 4 Nordeste 13 Nordeste 0 -- -- 77
2020-08-28 00:00:00 19.8 8 Nordeste 16 Nordeste 0 -- -- 69
2020-08-27 23:00:00 20.9 6 Nordeste 17 Este 0 -- -- 60
2020-08-27 22:00:00 23 10 Este 18 Nordeste 0 -- -- 37
2020-08-27 21:00:00 26.4 10 Noroeste 29 Noroeste 0 -- -- 24
2020-08-27 20:00:00 29.1 19 Noroeste 33 Noroeste 0 -- -- 20
2020-08-27 19:00:00 31 22 Oeste 33 Oeste 0 -- -- 17
2020-08-27 18:00:00 32 23 Oeste 35 Oeste 0 -- -- 16
2020-08-27 17:00:00 32.8 17 Oeste 35 Oeste 0 -- -- 15
2020-08-27 16:00:00 32 18 Oeste 41 Oeste 0 -- -- 19
2020-08-27 15:00:00 32.1 15 Oeste 33 Oeste 0 -- -- 20
2020-08-27 14:00:00 31 15 Oeste 33 Sudoeste 0 -- -- 23
2020-08-27 13:00:00 30.6 10 Oeste 21 Sudoeste 0 -- -- 27
2020-08-27 12:00:00 30.1 9 Oeste 17 Oeste 0 -- -- 30
2020-08-27 11:00:00 27.5 4 Sudeste 12 Sur 0 -- -- 41
2020-08-27 10:00:00 25.6 3 Norte 6 Norte 0 -- -- 47
2020-08-27 09:00:00 24.1 0 Calma 4 Norte 0 -- -- 53
2020-08-27 08:00:00 15.8 0 Calma 5 Nordeste 0 -- -- 80
2020-08-27 07:00:00 14.4 6 Este 8 Este 0 -- -- 87
2020-08-27 06:00:00 14.8 2 Norte 5 Norte 0 -- -- 86
2020-08-27 05:00:00 14.7 4 Norte 8 Noroeste 0 -- -- 91
2020-08-27 04:00:00 15.2 4 Noroeste 6 Nordeste 0 -- -- 90
2020-08-27 03:00:00 16.5 5 Nordeste 8 Este 0 -- -- 86
2020-08-27 02:00:00 17.3 3 Nordeste 7 Nordeste 0 -- -- 82
2020-08-27 01:00:00 18.5 3 Nordeste 7 Este 0 -- -- 75
2020-08-27 00:00:00 18.5 4 Nordeste 14 Este 0 -- -- 68
2020-08-26 23:00:00 21.8 6 Este 18 Nordeste 0 -- -- 55
2020-08-26 22:00:00 23.3 10 Este 17 Este 0 -- -- 47
2020-08-26 21:00:00 25.2 8 Este 19 Nordeste 0 -- -- 41
2020-08-26 20:00:00 30.8 8 Noroeste 21 Oeste 0 -- -- 20
2020-08-26 19:00:00 33 12 Oeste 28 Oeste 0 -- -- 18
2020-08-26 18:00:00 34.3 14 Oeste 38 Oeste 0 -- -- 17
2020-08-26 17:00:00 33.7 13 Oeste 31 Oeste 0 -- -- 17
2020-08-26 16:00:00 33.7 12 Oeste 33 Sudoeste 0 -- -- 15
2020-08-26 15:00:00 33.2 13 Noroeste 32 Sudoeste 0 -- -- 16
2020-08-26 14:00:00 32.4 17 Oeste 27 Oeste 0 -- -- 16
2020-08-26 13:00:00 31.2 6 Oeste 18 Oeste 0 -- -- 23
2020-08-26 12:00:00 29.7 4 Oeste 12 Sur 0 -- -- 31
2020-08-26 11:00:00 27.1 5 Sudeste 10 Este 0 -- -- 38
2020-08-26 10:00:00 24.9 5 Sudeste 9 Sudeste 0 -- -- 43
2020-08-26 09:00:00 20.6 5 Nordeste 8 Nordeste 0 -- -- 55
2020-08-26 08:00:00 14.9 4 Norte 9 Noroeste 0 -- -- 75
2020-08-26 07:00:00 12.8 3 Norte 6 Este 0 -- -- 84
2020-08-26 06:00:00 14.7 4 Este 8 Nordeste 0 -- -- 77
2020-08-26 05:00:00 14.8 4 Nordeste 9 Nordeste 0 -- -- 74
2020-08-26 04:00:00 16.2 3 Nordeste 9 Norte 0 -- -- 67
2020-08-26 03:00:00 17.5 5 Norte 9 Nordeste 0 -- -- 59
2020-08-26 02:00:00 17.5 4 Nordeste 8 Nordeste 0 -- -- 58
2020-08-26 01:00:00 19.4 5 Nordeste 10 Nordeste 0 -- -- 48
2020-08-26 00:00:00 20.2 5 Nordeste 15 Nordeste 0 -- -- 44
2020-08-25 23:00:00 22.4 9 Este 17 Este 0 -- -- 37
2020-08-25 22:00:00 22.2 3 Noroeste 7 Oeste 0 -- -- 31
2020-08-25 21:00:00 24.8 4 Noroeste 14 Noroeste 0 -- -- 28
2020-08-25 20:00:00 30.5 8 Oeste 24 Oeste 0 -- -- 19
2020-08-25 19:00:00 32.3 15 Noroeste 27 Oeste 0 -- -- 18
2020-08-25 18:00:00 32.9 16 Oeste 31 Oeste 0 -- -- 18
2020-08-25 17:00:00 33 16 Oeste 31 Oeste 0 -- -- 18
2020-08-25 16:00:00 32.2 18 Oeste 32 Oeste 0 -- -- 19
2020-08-25 15:00:00 31.5 17 Noroeste 38 Oeste 0 -- -- 18
2020-08-25 14:00:00 30.4 18 Oeste 35 Oeste 0 -- -- 21
2020-08-25 13:00:00 30.1 11 Oeste 23 Oeste 0 -- -- 22
2020-08-25 12:00:00 29.5 6 Oeste 19 Sudoeste 0 -- -- 25
2020-08-25 11:00:00 26.4 5 Oeste 13 Sudeste 0 -- -- 42
2020-08-25 10:00:00 22.6 3 Nordeste 7 Nordeste 0 -- -- 49
2020-08-25 09:00:00 19.8 4 Este 7 Sudeste 0 -- -- 53
2020-08-25 08:00:00 12.9 2 Sudeste 5 Sudeste 0 -- -- 79
2020-08-25 07:00:00 11 4 Norte 5 Norte 0 -- -- 85
2020-08-25 06:00:00 11.6 0 Calma 4 Norte 0 -- -- 83
2020-08-25 05:00:00 11.7 2 Noroeste 6 Noroeste 0 -- -- 81
2020-08-25 04:00:00 12.1 3 Noroeste 4 Noroeste 0 -- -- 81
2020-08-25 03:00:00 12.8 0 Calma 6 Nordeste 0 -- -- 80
2020-08-25 02:00:00 13.7 2 Nordeste 6 Este 0 -- -- 76
2020-08-25 01:00:00 15 5 Este 8 Este 0 -- -- 69
2020-08-25 00:00:00 16.1 4 Este 13 Este 0 -- -- 64
2020-08-24 23:00:00 18.5 6 Este 18 Este 0 -- -- 53
2020-08-24 22:00:00 20 5 Norte 10 Este 0 -- -- 36
2020-08-24 21:00:00 23.2 6 Oeste 17 Oeste 0 -- -- 29
2020-08-24 20:00:00 27.4 13 Oeste 30 Oeste 0 -- -- 22
2020-08-24 19:00:00 28.9 15 Oeste 32 Sudoeste 0 -- -- 23
2020-08-24 18:00:00 29.8 14 Oeste 29 Oeste 0 -- -- 22
2020-08-24 17:00:00 29.8 13 Oeste 37 Oeste 0 -- -- 22
2020-08-24 16:00:00 28.7 16 Oeste 33 Oeste 0 -- -- 24
2020-08-24 15:00:00 28.2 12 Noroeste 24 Oeste 0 -- -- 26
2020-08-24 14:00:00 28.1 7 Noroeste 20 Sudeste 0 -- -- 29
2020-08-24 13:00:00 25 9 Sur 18 Sur 0 -- -- 35
2020-08-24 12:00:00 23.9 4 Este 15 Este 0 -- -- 40
2020-08-24 11:00:00 21.7 6 Este 15 Este 0 -- -- 44
2020-08-24 10:00:00 19.4 6 Sudeste 12 Sudeste 0 -- -- 49
2020-08-24 09:00:00 16.6 6 Este -- -- -- -- -- 58
2020-08-24 08:00:00 -- -- -- -- -- -- -- -- --
2020-08-24 07:00:00 -- -- -- -- -- -- -- -- --
2020-08-24 06:00:00 -- -- -- -- -- -- -- -- --
2020-08-24 05:00:00 -- -- -- -- -- -- -- -- --
2020-08-24 04:00:00 -- -- -- -- -- -- -- -- --
2020-08-24 03:00:00 -- -- -- -- -- -- -- -- --
2020-08-24 02:00:00 -- -- -- -- -- -- -- -- --
2020-08-24 01:00:00 -- -- -- -- -- -- -- -- --
2020-08-24 00:00:00 -- -- -- -- -- -- -- -- --
2020-08-23 23:00:00 -- -- -- -- -- -- -- -- --
2020-08-23 22:00:00 -- -- -- -- -- -- -- -- --
2020-08-23 21:00:00 -- -- -- -- -- -- -- -- --
2020-08-23 20:00:00 -- -- -- -- -- -- -- -- --
2020-08-23 19:00:00 -- -- -- -- -- -- -- -- --
2020-08-23 18:00:00 -- -- -- -- -- -- -- -- --
2020-08-23 17:00:00 -- -- -- -- -- -- -- -- --
2020-08-23 16:00:00 -- -- -- -- -- -- -- -- --
2020-08-23 15:00:00 -- -- -- -- -- -- -- -- --
2020-08-23 14:00:00 -- -- -- -- -- -- -- -- --
2020-08-23 13:00:00 -- -- -- -- -- -- -- -- --
2020-08-23 12:00:00 -- -- -- -- -- -- -- -- --
2020-08-23 11:00:00 -- -- -- -- -- -- -- -- --
2020-08-23 10:00:00 -- -- -- -- -- -- -- -- --
2020-08-23 09:00:00 -- -- -- -- -- -- -- -- --
2020-08-23 08:00:00 -- -- -- -- -- -- -- -- --
2020-08-23 07:00:00 -- -- -- -- -- -- -- -- --
2020-08-23 06:00:00 -- -- -- -- -- -- -- -- --
2020-08-23 05:00:00 -- -- -- -- -- -- -- -- --
2020-08-23 04:00:00 -- -- -- -- -- -- -- -- --
2020-08-23 03:00:00 -- -- -- -- -- -- -- -- --
2020-08-23 02:00:00 -- -- -- -- -- -- -- -- --
2020-08-23 01:00:00 -- -- -- -- -- -- -- -- --
2020-08-23 00:00:00 -- -- -- -- -- -- -- -- --
2020-08-22 23:00:00 -- -- -- -- -- -- -- -- --
2020-08-22 22:00:00 -- -- -- -- -- -- -- -- --
2020-08-22 21:00:00 -- -- -- -- -- -- -- -- --
2020-08-22 20:00:00 -- -- -- -- -- -- -- -- --
2020-08-22 19:00:00 -- -- -- -- -- -- -- -- --
2020-08-22 18:00:00 -- -- -- -- -- -- -- -- --
2020-08-22 17:00:00 -- -- -- -- -- -- -- -- --
2020-08-22 16:00:00 -- -- -- -- -- -- -- -- --
2020-08-22 15:00:00 -- -- -- -- -- -- -- -- --
2020-08-22 14:00:00 -- -- -- -- -- -- -- -- --
2020-08-22 13:00:00 -- -- -- -- -- -- -- -- --
2020-08-22 12:00:00 -- -- -- -- -- -- -- -- --
2020-08-22 11:00:00 -- -- -- -- -- -- -- -- --
2020-08-22 10:00:00 -- -- -- -- -- -- -- -- --
2020-08-22 09:00:00 -- -- -- -- -- -- -- -- --
2020-08-22 08:00:00 -- -- -- -- -- -- -- -- --
2020-08-22 07:00:00 -- -- -- -- -- -- -- -- --
2020-08-22 06:00:00 -- -- -- -- -- -- -- -- --
2020-08-22 05:00:00 -- -- -- -- -- -- -- -- --
2020-08-22 04:00:00 -- -- -- -- -- -- -- -- --
2020-08-22 03:00:00 -- -- -- -- -- -- -- -- --
2020-08-22 02:00:00 -- -- -- -- -- -- -- -- --
2020-08-22 01:00:00 -- -- -- -- -- -- -- -- --
2020-08-22 00:00:00 -- -- -- -- -- -- -- -- --
2020-08-21 23:00:00 -- -- -- -- -- -- -- -- --
2020-08-21 22:00:00 -- -- -- -- -- -- -- -- --
2020-08-21 21:00:00 -- -- -- -- -- -- -- -- --
2020-08-21 20:00:00 -- -- -- -- -- -- -- -- --
2020-08-21 19:00:00 26 17 Sur 36 Sudoeste 0 -- -- 41
2020-08-21 18:00:00 30.8 18 Sur 36 Sudoeste 0 -- -- 29
2020-08-21 17:00:00 29.3 14 Sudoeste 31 Sudoeste 0 -- -- 32
2020-08-21 16:00:00 31.3 5 Noroeste 27 Oeste 0 -- -- 29
2020-08-21 15:00:00 30 14 Sur 34 Sur 0 -- -- 33
2020-08-21 14:00:00 28.9 13 Sudoeste 29 Oeste 0 -- -- 34
2020-08-21 13:00:00 28 11 Oeste 29 Oeste 0 -- -- 36
2020-08-21 12:00:00 25.4 13 Sudoeste 27 Sudoeste 0 -- -- 43
2020-08-21 11:00:00 23.7 14 Sudoeste 26 Sudoeste 0 -- -- 50
2020-08-21 10:00:00 22.7 6 Sudoeste 11 Oeste 0 -- -- 58
2020-08-21 09:00:00 20.5 4 Sur 6 Sur 0 -- -- 72
2020-08-21 08:00:00 14.5 3 Oeste 6 Noroeste 0 -- -- 97
2020-08-21 07:00:00 13 5 Oeste 6 Oeste 0 -- -- 99
2020-08-21 06:00:00 13.5 4 Oeste 14 Sudoeste 0 -- -- 95
2020-08-21 05:00:00 15.3 9 Sudoeste 16 Oeste 0 -- -- 86
2020-08-21 04:00:00 15.3 10 Sudoeste 19 Sudoeste 0 -- -- 61
2020-08-21 03:00:00 17.3 13 Sudoeste 17 Sudoeste 0 -- -- 37
2020-08-21 02:00:00 19.6 10 Oeste 15 Oeste 0 -- -- 33
2020-08-21 01:00:00 19.1 12 Oeste 18 Oeste 0 -- -- 28
2020-08-21 00:00:00 21.5 9 Sudoeste 15 Sudoeste 0 -- -- 23
2020-08-20 23:00:00 20.9 8 Sudoeste 14 Sudoeste 0 -- -- 26
2020-08-20 22:00:00 22.8 7 Sudoeste 19 Sudoeste 0 -- -- 22
2020-08-20 21:00:00 25.9 10 Sudoeste 29 Sudoeste 0 -- -- 18
2020-08-20 20:00:00 28.8 15 Sudoeste 39 Sudoeste 0 -- -- 16
2020-08-20 19:00:00 30.1 21 Sudoeste 47 Sudoeste 0 -- -- 11
2020-08-20 18:00:00 30.9 24 Sur 45 Sur 0 -- -- 10
2020-08-20 17:00:00 30.6 23 Sudoeste 44 Sur 0 -- -- 13
2020-08-20 16:00:00 30.9 26 Sudoeste 46 Sudoeste 0 -- -- 11
2020-08-20 15:00:00 29.1 27 Sur 46 Sudoeste 0 -- -- 15
2020-08-20 14:00:00 28.8 26 Sudoeste 48 Oeste 0 -- -- 17
2020-08-20 13:00:00 27.7 25 Sudoeste 44 Sur 0 -- -- 18
2020-08-20 12:00:00 26.6 24 Sur 42 Sudoeste 0 -- -- 21
2020-08-20 11:00:00 25.8 19 Sur 35 Sur 0 -- -- 22
2020-08-20 10:00:00 22.9 14 Sur 24 Sudoeste 0 -- -- 28
2020-08-20 09:00:00 20.6 12 Sur 21 Sudoeste 0 -- -- 33
2020-08-20 08:00:00 17.2 6 Sur 11 Sudeste 0 -- -- 38
2020-08-20 07:00:00 11.9 3 Norte 7 Sudeste 0 -- -- 47
2020-08-20 06:00:00 14.7 6 Sur 13 Sur 0 -- -- 38
2020-08-20 05:00:00 14.3 5 Sur 10 Sudeste 0 -- -- 36
2020-08-20 04:00:00 13.6 0 Calma 5 Oeste 0 -- -- 37
2020-08-20 03:00:00 13.8 0 Calma 6 Oeste 0 -- -- 34
2020-08-20 02:00:00 17.1 6 Oeste 13 Oeste 0 -- -- 27
2020-08-20 01:00:00 18 8 Oeste 12 Oeste 0 -- -- 26
2020-08-20 00:00:00 19.9 9 Oeste 20 Oeste 0 -- -- 21
2020-08-19 23:00:00 21.4 11 Oeste 22 Oeste 0 -- -- 24
2020-08-19 22:00:00 23.1 13 Sudoeste 21 Sudoeste 0 -- -- 22
2020-08-19 21:00:00 24.9 12 Sudoeste 32 Sur 0 -- -- 19
2020-08-19 20:00:00 27.7 22 Sudoeste 42 Sudoeste 0 -- -- 14
2020-08-19 19:00:00 29.4 23 Sudoeste 49 Sudoeste 0 -- -- 13
2020-08-19 18:00:00 30.3 22 Sudoeste 46 Oeste 0 -- -- 14
2020-08-19 17:00:00 30.8 20 Sudoeste 46 Sudoeste 0 -- -- 14
2020-08-19 16:00:00 30.1 22 Sudoeste 44 Sudoeste 0 -- -- 17
2020-08-19 15:00:00 29.1 23 Sudoeste 41 Sur 0 -- -- 22
2020-08-19 14:00:00 28.8 18 Sudoeste 43 Sudoeste 0 -- -- 20
2020-08-19 13:00:00 27.4 23 Sudoeste 45 Oeste 0 -- -- 28
2020-08-19 12:00:00 25.8 18 Sudoeste 39 Sudoeste 0 -- -- 39
2020-08-19 11:00:00 24 12 Sur 20 Sur 0 -- -- 47
2020-08-19 10:00:00 22.6 7 Sudoeste 12 Sudoeste 0 -- -- 50
2020-08-19 09:00:00 20.5 6 Sudoeste 12 Sudoeste 0 -- -- 60
2020-08-19 08:00:00 17.2 0 Calma 12 Sudoeste 0 -- -- 75
2020-08-19 07:00:00 15.5 9 Sudoeste 13 Sudoeste 0 -- -- 80
2020-08-19 06:00:00 14.9 7 Sudoeste 10 Sudoeste 0 -- -- 83
2020-08-19 05:00:00 14.9 7 Sur 13 Sur 0 -- -- 84
2020-08-19 04:00:00 15.5 7 Sudoeste 11 Sur 0 -- -- 81
2020-08-19 03:00:00 16.6 8 Sur 12 Sur 0 -- -- 75
2020-08-19 02:00:00 16.6 8 Sur 10 Sur 0 -- -- 73
2020-08-19 01:00:00 17.8 6 Sur 9 Sudoeste 0 -- -- 67
2020-08-19 00:00:00 18.3 6 Sudoeste 8 Sudoeste 0 -- -- 65